Time;durP1;ratioP1;P1;durP2;ratioP2;P2;SDS_P1;SDS_P2;PMS_P1;PMS_P2;Temp;Humidity;BMP_temperature;BMP_pressure;BME280_temperature;BME280_humidity;BME280_pressure;Samples;Min_cycle;Max_cycle;Signal;HPM_P1;HPM_P2
2021/04/20 00:00:56;;;;;;;8.83;4.77;;;;;;;;;;10222884;28;20046;-61
2021/04/20 00:05:53;;;;;;;8.50;3.77;;;;;;;;;;10240683;28;20446;-58
2021/04/20 00:10:51;;;;;;;8.20;4.17;;;;;;;;;;10273885;28;20030;-61
2021/04/20 00:15:48;;;;;;;10.33;4.90;;;;;;;;;;10262014;28;20026;-62
2021/04/20 00:20:46;;;;;;;8.37;4.53;;;;;;;;;;10235511;28;20057;-62
2021/04/20 00:25:44;;;;;;;6.23;4.23;;;;;;;;;;10234747;28;20136;-63
2021/04/20 00:30:41;;;;;;;10.73;4.37;;;;;;;;;;10232949;28;20324;-61
2021/04/20 00:35:38;;;;;;;11.80;4.43;;;;;;;;;;10244676;28;20529;-63
2021/04/20 00:40:36;;;;;;;7.43;4.40;;;;;;;;;;10259357;28;20414;-61
2021/04/20 00:45:34;;;;;;;6.57;4.30;;;;;;;;;;10273914;28;20072;-60
2021/04/20 00:50:33;;;;;;;7.82;4.53;;;;;;;;;;10283230;28;20046;-61
2021/04/20 00:55:30;;;;;;;;;;;;;;;;;;10281096;28;20021;-61
2021/04/20 01:00:29;;;;;;;5.60;3.78;;;;;;;;;;10281373;28;20000;-61
2021/04/20 01:05:30;;;;;;;7.55;4.13;;;;;;;;;;10269119;28;20384;-59
2021/04/20 01:10:28;;;;;;;7.68;4.82;;;;;;;;;;10275709;28;20030;-61
2021/04/20 01:15:26;;;;;;;8.27;4.63;;;;;;;;;;10270823;28;20511;-60
2021/04/20 01:20:23;;;;;;;5.57;3.57;;;;;;;;;;10260196;28;20037;-61
2021/04/20 01:25:20;;;;;;;5.83;3.63;;;;;;;;;;10282078;28;20492;-62
2021/04/20 01:30:18;;;;;;;12.33;3.80;;;;;;;;;;10279367;28;20566;-60
2021/04/20 01:35:15;;;;;;;6.43;3.77;;;;;;;;;;10273498;28;20048;-60
2021/04/20 01:40:14;;;;;;;6.90;3.33;;;;;;;;;;10278118;28;20112;-61
2021/04/20 01:45:12;;;;;;;11.05;4.90;;;;;;;;;;10271111;28;20791;-59
2021/04/20 01:50:09;;;;;;;9.77;4.03;;;;;;;;;;10265847;28;20034;-61
2021/04/20 01:55:07;;;;;;;5.07;2.30;;;;;;;;;;10257393;28;20430;-62
2021/04/20 02:00:07;;;;;;;5.07;3.90;;;;;;;;;;10273240;28;20049;-61
2021/04/20 02:05:10;;;;;;;9.25;4.35;;;;;;;;;;10281798;28;20041;-61
2021/04/20 02:10:08;;;;;;;7.32;3.85;;;;;;;;;;10283343;28;20369;-61
2021/04/20 02:15:07;;;;;;;9.77;4.68;;;;;;;;;;10279751;28;20410;-62
2021/04/20 02:20:06;;;;;;;10.77;4.82;;;;;;;;;;10261659;28;20048;-63
2021/04/20 02:25:10;;;;;;;6.85;4.18;;;;;;;;;;10278078;28;20041;-63
2021/04/20 02:30:09;;;;;;;4.53;3.63;;;;;;;;;;10272293;28;20062;-62
2021/04/20 02:35:14;;;;;;;10.18;5.25;;;;;;;;;;10281046;28;20576;-61
2021/04/20 02:40:18;;;;;;;9.80;4.50;;;;;;;;;;10281862;28;20034;-61
2021/04/20 02:45:16;;;;;;;9.35;5.32;;;;;;;;;;10277394;28;20057;-61
2021/04/20 02:50:24;;;;;;;7.23;5.17;;;;;;;;;;10274945;28;20088;-60
2021/04/20 02:55:23;;;;;;;14.57;5.73;;;;;;;;;;10277051;28;20347;-61
2021/04/20 03:00:22;;;;;;;11.80;5.18;;;;;;;;;;10280221;28;20168;-62
2021/04/20 03:05:20;;;;;;;6.75;4.78;;;;;;;;;;10280923;28;20033;-62
2021/04/20 03:10:18;;;;;;;7.13;4.22;;;;;;;;;;10270111;28;20026;-63
2021/04/20 03:15:16;;;;;;;8.60;4.05;;;;;;;;;;10273139;28;20092;-63
2021/04/20 03:20:15;;;;;;;5.35;3.20;;;;;;;;;;10253980;28;20033;-62
2021/04/20 03:25:15;;;;;;;7.28;3.00;;;;;;;;;;10271475;28;20033;-61
2021/04/20 03:30:14;;;;;;;6.88;3.67;;;;;;;;;;10277411;28;20045;-63
2021/04/20 03:35:14;;;;;;;9.00;5.05;;;;;;;;;;10273683;28;20045;-63
2021/04/20 03:40:13;;;;;;;7.50;3.80;;;;;;;;;;10272297;28;20099;-61
2021/04/20 03:45:14;;;;;;;9.68;4.07;;;;;;;;;;10276815;28;20048;-62
2021/04/20 03:50:41;;;;;;;6.60;3.80;;;;;;;;;;10280844;28;20055;-62
2021/04/20 03:55:38;;;;;;;4.65;3.72;;;;;;;;;;10265501;28;20564;-63
2021/04/20 04:00:36;;;;;;;8.43;4.43;;;;;;;;;;10275509;28;20388;-62
2021/04/20 04:05:34;;;;;;;10.85;3.92;;;;;;;;;;10277678;28;20045;-62
2021/04/20 04:10:32;;;;;;;5.90;4.23;;;;;;;;;;10278776;28;20042;-61
2021/04/20 04:15:31;;;;;;;10.43;4.67;;;;;;;;;;10275142;28;20292;-62
2021/04/20 04:20:28;;;;;;;;;;;;;;;;;;10273485;28;20033;-62
2021/04/20 04:25:29;;;;;;;9.68;3.97;;;;;;;;;;10273998;28;20306;-61
2021/04/20 04:30:27;;;;;;;4.97;3.60;;;;;;;;;;10275757;28;20498;-64
2021/04/20 04:35:26;;;;;;;11.63;3.92;;;;;;;;;;10267858;28;20083;-61
2021/04/20 04:40:23;;;;;;;;;;;;;;;;;;10276144;28;20767;-63
2021/04/20 04:45:21;;;;;;;6.43;2.83;;;;;;;;;;10271725;28;19917;-63
2021/04/20 04:50:18;;;;;;;2.50;1.63;;;;;;;;;;10261021;28;20510;-61
2021/04/20 04:55:16;;;;;;;5.03;2.10;;;;;;;;;;10281844;28;20037;-64
2021/04/20 05:00:15;;;;;;;2.95;1.48;;;;;;;;;;10277958;28;20044;-65
2021/04/20 05:05:15;;;;;;;;;;;;;;;;;;10293233;28;20033;-64
2021/04/20 05:10:13;;;;;;;6.80;3.17;;;;;;;;;;10285839;28;19976;-61
2021/04/20 05:15:16;;;;;;;12.93;5.22;;;;;;;;;;10280728;28;20021;-64
2021/04/20 05:20:16;;;;;;;9.25;3.78;;;;;;;;;;10272835;28;20029;-63
2021/04/20 05:25:15;;;;;;;2.83;1.60;;;;;;;;;;10284398;28;20120;-62
2021/04/20 05:30:12;;;;;;;4.68;2.38;;;;;;;;;;10276699;28;20312;-61
2021/04/20 05:35:10;;;;;;;7.67;3.43;;;;;;;;;;10273346;28;20038;-63
2021/04/20 05:40:07;;;;;;;16.10;6.83;;;;;;;;;;10266930;28;20589;-64
2021/04/20 05:45:06;;;;;;;1.77;1.67;;;;;;;;;;10286156;28;20037;-63
2021/04/20 05:50:05;;;;;;;2.88;2.53;;;;;;;;;;10282759;28;20029;-63
2021/04/20 05:55:02;;;;;;;;;;;;;;;;;;10257120;28;20500;-63
2021/04/20 06:00:00;;;;;;;4.32;2.03;;;;;;;;;;10290353;28;19944;-63
2021/04/20 06:04:59;;;;;;;2.17;1.98;;;;;;;;;;10295416;28;20137;-64
2021/04/20 06:09:57;;;;;;;0.88;0.88;;;;;;;;;;10282099;28;20037;-64
2021/04/20 06:14:54;;;;;;;11.90;4.40;;;;;;;;;;10275016;28;20155;-63
2021/04/20 06:19:51;;;;;;;7.63;3.47;;;;;;;;;;10296181;28;20040;-61
2021/04/20 06:24:49;;;;;;;7.53;4.30;;;;;;;;;;10285115;28;20047;-62
2021/04/20 06:29:46;;;;;;;7.00;4.50;;;;;;;;;;10271081;28;20033;-63
2021/04/20 06:34:44;;;;;;;10.80;4.27;;;;;;;;;;10294057;28;20044;-61
2021/04/20 06:39:42;;;;;;;8.77;4.27;;;;;;;;;;10287520;28;20029;-63
2021/04/20 06:44:43;;;;;;;8.02;3.75;;;;;;;;;;10264138;28;20799;-63
2021/04/20 06:49:43;;;;;;;6.55;3.42;;;;;;;;;;10268711;28;20052;-64
2021/04/20 06:55:04;;;;;;;7.32;3.42;;;;;;;;;;10305337;28;20041;-63
2021/04/20 07:00:04;;;;;;;6.47;4.10;;;;;;;;;;10273184;28;20029;-62
2021/04/20 07:05:06;;;;;;;7.30;3.22;;;;;;;;;;10275860;28;20067;-63
2021/04/20 07:10:10;;;;;;;9.68;3.33;;;;;;;;;;10297199;28;20354;-63
2021/04/20 07:15:08;;;;;;;7.07;2.63;;;;;;;;;;10291258;28;20030;-62
2021/04/20 07:20:19;;;;;;;5.20;2.20;;;;;;;;;;10277343;28;20033;-63
2021/04/20 07:25:23;;;;;;;5.95;2.45;;;;;;;;;;10275637;28;20461;-63
2021/04/20 07:30:23;;;;;;;2.78;2.20;;;;;;;;;;10292160;28;20045;-63
2021/04/20 07:35:33;;;;;;;7.35;2.35;;;;;;;;;;10284276;28;20095;-62
2021/04/20 07:40:53;;;;;;;1.25;0.93;;;;;;;;;;10268397;28;20120;-61
2021/04/20 07:45:51;;;;;;;6.97;3.03;;;;;;;;;;10271766;28;20029;-62
2021/04/20 07:50:53;;;;;;;4.93;1.48;;;;;;;;;;10278060;28;20059;-63
2021/04/20 07:55:51;;;;;;;2.08;1.52;;;;;;;;;;10288207;28;20053;-64
2021/04/20 08:00:57;;;;;;;2.90;1.93;;;;;;;;;;10286471;28;20052;-63
2021/04/20 08:06:00;;;;;;;2.15;1.33;;;;;;;;;;10288445;28;20052;-64
2021/04/20 08:10:59;;;;;;;6.50;1.92;;;;;;;;;;10284310;28;20038;-64
2021/04/20 08:16:13;;;;;;;5.03;3.38;;;;;;;;;;10291433;28;20038;-64
2021/04/20 08:21:12;;;;;;;3.65;2.03;;;;;;;;;;10283147;28;20045;-64
2021/04/20 08:26:13;;;;;;;4.82;2.10;;;;;;;;;;10284759;28;20080;-64
2021/04/20 08:31:13;;;;;;;4.15;1.23;;;;;;;;;;10282819;28;20068;-63
2021/04/20 08:36:34;;;;;;;6.05;3.88;;;;;;;;;;10285494;28;20135;-64
2021/04/20 08:41:40;;;;;;;7.78;3.58;;;;;;;;;;10248053;28;20052;-64
2021/04/20 08:46:43;;;;;;;5.05;2.67;;;;;;;;;;10276470;28;20570;-63
2021/04/20 08:51:53;;;;;;;5.18;3.20;;;;;;;;;;10278982;28;20467;-64
2021/04/20 08:56:58;;;;;;;4.57;3.05;;;;;;;;;;10284212;28;20079;-64
2021/04/20 09:01:56;;;;;;;8.25;2.10;;;;;;;;;;10288500;28;20049;-64
2021/04/20 09:06:58;;;;;;;5.50;3.13;;;;;;;;;;10264921;28;20495;-62
2021/04/20 09:11:59;;;;;;;6.95;3.15;;;;;;;;;;10290216;28;20055;-62
2021/04/20 09:16:58;;;;;;;3.95;2.22;;;;;;;;;;10282300;28;20038;-63
2021/04/20 09:22:02;;;;;;;8.70;2.63;;;;;;;;;;10276018;28;20065;-62
2021/04/20 09:27:06;;;;;;;3.92;2.40;;;;;;;;;;10286844;28;20045;-61
2021/04/20 09:32:08;;;;;;;1.95;1.35;;;;;;;;;;10291204;28;20633;-62
2021/04/20 09:37:06;;;;;;;3.30;1.83;;;;;;;;;;10280362;28;20399;-62
2021/04/20 09:42:05;;;;;;;5.35;2.72;;;;;;;;;;10283174;28;20529;-62
2021/04/20 09:47:06;;;;;;;2.67;1.58;;;;;;;;;;10259622;28;20053;-62
2021/04/20 09:52:09;;;;;;;5.63;1.92;;;;;;;;;;10266964;28;20042;-63
2021/04/20 09:57:07;;;;;;;5.28;2.45;;;;;;;;;;10258475;28;20034;-62
2021/04/20 10:02:16;;;;;;;5.22;2.40;;;;;;;;;;10289991;28;20037;-63
2021/04/20 10:07:17;;;;;;;2.20;1.10;;;;;;;;;;10277125;28;20057;-63
2021/04/20 10:12:23;;;;;;;2.83;1.73;;;;;;;;;;10267036;28;20034;-63
2021/04/20 10:17:50;;;;;;;3.28;2.13;;;;;;;;;;10251894;28;20088;-61
2021/04/20 10:22:50;;;;;;;4.88;2.70;;;;;;;;;;10219562;28;20042;-63
2021/04/20 10:27:50;;;;;;;3.45;1.70;;;;;;;;;;10261372;28;20030;-61
2021/04/20 10:32:50;;;;;;;2.78;1.45;;;;;;;;;;10239818;28;20026;-63
2021/04/20 10:37:50;;;;;;;3.22;1.75;;;;;;;;;;10279716;28;20045;-63
2021/04/20 10:42:48;;;;;;;3.72;1.95;;;;;;;;;;10241557;28;20748;-64
2021/04/20 10:47:50;;;;;;;5.25;2.08;;;;;;;;;;10252390;28;20034;-64
2021/04/20 10:52:51;;;;;;;4.40;2.25;;;;;;;;;;10249926;28;20042;-63
2021/04/20 10:57:48;;;;;;;3.60;1.60;;;;;;;;;;10285954;28;20517;-65
2021/04/20 11:02:51;;;;;;;5.40;2.78;;;;;;;;;;10285711;28;20110;-62
2021/04/20 11:07:50;;;;;;;4.82;2.00;;;;;;;;;;10297466;28;20045;-63
2021/04/20 11:12:48;;;;;;;5.65;1.90;;;;;;;;;;10295261;28;20098;-63
2021/04/20 11:17:49;;;;;;;5.22;2.40;;;;;;;;;;10267596;28;20392;-63
2021/04/20 11:22:46;;;;;;;8.02;1.67;;;;;;;;;;10292668;28;20033;-63
2021/04/20 11:27:44;;;;;;;5.43;1.73;;;;;;;;;;10295485;28;20079;-64
2021/04/20 11:32:53;;;;;;;3.47;2.10;;;;;;;;;;10270311;28;20029;-63
2021/04/20 11:37:57;;;;;;;4.80;2.17;;;;;;;;;;10280984;28;20399;-62
2021/04/20 11:42:55;;;;;;;5.32;2.10;;;;;;;;;;10285540;28;20044;-62
2021/04/20 11:47:55;;;;;;;5.65;2.20;;;;;;;;;;10236960;28;20042;-63
2021/04/20 11:53:00;;;;;;;3.70;2.38;;;;;;;;;;10235600;28;20121;-63
2021/04/20 11:58:05;;;;;;;3.38;1.70;;;;;;;;;;10244649;28;20575;-63
2021/04/20 12:03:07;;;;;;;2.20;1.92;;;;;;;;;;10278780;28;20032;-63
2021/04/20 12:08:06;;;;;;;4.65;2.25;;;;;;;;;;10291119;28;20035;-63
2021/04/20 12:13:04;;;;;;;4.80;2.60;;;;;;;;;;10276603;28;20044;-63
2021/04/20 12:18:04;;;;;;;3.90;2.25;;;;;;;;;;10280781;28;20034;-63
2021/04/20 12:23:02;;;;;;;3.88;2.97;;;;;;;;;;10257149;28;20041;-63
2021/04/20 12:28:02;;;;;;;6.43;3.00;;;;;;;;;;10283081;28;20037;-63
2021/04/20 12:32:59;;;;;;;3.95;2.17;;;;;;;;;;10283974;28;20033;-63
2021/04/20 12:38:00;;;;;;;5.00;1.92;;;;;;;;;;10282298;28;20038;-64
2021/04/20 12:43:00;;;;;;;6.03;2.15;;;;;;;;;;10277315;28;20053;-64
2021/04/20 12:47:58;;;;;;;4.10;2.75;;;;;;;;;;10221518;28;20034;-62
2021/04/20 12:53:00;;;;;;;5.78;2.67;;;;;;;;;;10239216;28;20121;-63
2021/04/20 12:58:04;;;;;;;4.35;3.05;;;;;;;;;;10243824;28;20042;-63
2021/04/20 13:03:02;;;;;;;4.30;2.67;;;;;;;;;;10243055;28;20031;-63
2021/04/20 13:08:04;;;;;;;5.15;2.67;;;;;;;;;;10232378;28;20091;-63
2021/04/20 13:13:04;;;;;;;4.53;2.88;;;;;;;;;;10240259;28;20049;-63
2021/04/20 13:18:04;;;;;;;8.38;3.35;;;;;;;;;;10245195;28;20088;-63
2021/04/20 13:23:20;;;;;;;3.72;2.80;;;;;;;;;;10246271;28;20034;-62
2021/04/20 13:28:24;;;;;;;5.82;2.88;;;;;;;;;;10250788;28;20092;-63
2021/04/20 13:33:23;;;;;;;2.97;1.98;;;;;;;;;;10233849;28;20449;-63
2021/04/20 13:38:21;;;;;;;4.80;2.80;;;;;;;;;;10230769;28;20063;-62
2021/04/20 13:43:19;;;;;;;5.78;3.50;;;;;;;;;;10251062;28;20053;-62
2021/04/20 13:48:22;;;;;;;6.93;4.07;;;;;;;;;;10211246;28;20380;-64
2021/04/20 13:53:32;;;;;;;7.93;4.22;;;;;;;;;;10226062;28;20384;-64
2021/04/20 13:58:31;;;;;;;4.13;2.35;;;;;;;;;;10247615;28;20030;-63
2021/04/20 14:03:33;;;;;;;7.20;3.60;;;;;;;;;;10264271;28;20030;-63
2021/04/20 14:08:31;;;;;;;7.40;2.38;;;;;;;;;;10256540;28;20086;-62
2021/04/20 14:13:33;;;;;;;6.80;5.30;;;;;;;;;;10298066;28;20057;-63
2021/04/20 14:18:31;;;;;;;8.07;5.43;;;;;;;;;;10248423;28;20038;-63
2021/04/20 14:23:36;;;;;;;10.02;5.25;;;;;;;;;;10244668;28;20091;-63
2021/04/20 14:28:36;;;;;;;9.25;6.70;;;;;;;;;;10269682;28;20036;-64
2021/04/20 14:33:40;;;;;;;7.53;4.95;;;;;;;;;;10291699;28;20399;-63
2021/04/20 14:38:39;;;;;;;7.65;4.15;;;;;;;;;;10309394;28;20380;-62
2021/04/20 14:43:40;;;;;;;8.45;5.15;;;;;;;;;;10280265;28;20122;-63
2021/04/20 14:48:38;;;;;;;14.23;6.55;;;;;;;;;;10241889;28;20125;-63
2021/04/20 14:53:40;;;;;;;9.95;4.78;;;;;;;;;;10273660;28;20196;-63
2021/04/20 14:58:41;;;;;;;4.90;3.45;;;;;;;;;;10238325;28;20037;-64
2021/04/20 15:03:43;;;;;;;4.13;3.03;;;;;;;;;;10244635;28;21615;-62
2021/04/20 15:08:43;;;;;;;10.70;6.68;;;;;;;;;;10233542;28;20052;-63
2021/04/20 15:13:59;;;;;;;9.50;6.15;;;;;;;;;;10224481;28;20181;-64
2021/04/20 15:19:01;;;;;;;9.15;6.05;;;;;;;;;;10244914;28;20034;-64
2021/04/20 15:24:07;;;;;;;4.47;2.85;;;;;;;;;;10280577;28;20033;-64
2021/04/20 15:29:09;;;;;;;6.25;3.75;;;;;;;;;;10270660;28;20120;-63
2021/04/20 15:34:09;;;;;;;8.05;5.32;;;;;;;;;;10278645;28;20499;-62
2021/04/20 15:39:08;;;;;;;10.75;7.10;;;;;;;;;;10269332;28;20417;-64
2021/04/20 15:44:07;;;;;;;5.13;3.60;;;;;;;;;;10248633;28;20048;-64
2021/04/20 15:49:09;;;;;;;11.60;6.70;;;;;;;;;;10271749;28;20026;-64
2021/04/20 15:54:08;;;;;;;8.02;6.22;;;;;;;;;;10270263;28;20041;-63
2021/04/20 15:59:11;;;;;;;6.70;4.57;;;;;;;;;;10281246;28;20518;-63
2021/04/20 16:04:10;;;;;;;11.00;5.72;;;;;;;;;;10273416;28;20399;-63
2021/04/20 16:09:12;;;;;;;5.80;2.75;;;;;;;;;;10245738;28;20034;-63
2021/04/20 16:14:12;;;;;;;0.70;0.70;;;;;;;;;;10240902;28;20056;-65
2021/04/20 16:19:10;;;;;;;6.70;1.80;;;;;;;;;;10244271;28;20037;-63
2021/04/20 16:24:13;;;;;;;9.85;6.05;;;;;;;;;;10281159;28;20041;-63
2021/04/20 16:29:12;;;;;;;8.43;4.25;;;;;;;;;;10250436;28;20030;-61
2021/04/20 16:34:10;;;;;;;5.28;2.65;;;;;;;;;;10280655;28;20414;-63
2021/04/20 16:39:25;;;;;;;7.22;2.05;;;;;;;;;;10245131;28;20034;-62
2021/04/20 16:44:42;;;;;;;4.80;3.35;;;;;;;;;;10234010;28;20368;-63
2021/04/20 16:49:39;;;;;;;12.00;5.72;;;;;;;;;;10233989;28;20766;-63
2021/04/20 16:54:36;;;;;;;;;;;;;;;;;;10241773;28;20373;-63
2021/04/20 16:59:34;;;;;;;5.50;2.33;;;;;;;;;;10255924;28;19914;-62
2021/04/20 17:04:31;;;;;;;;;;;;;;;;;;10266644;28;20054;-64
2021/04/20 17:09:58;;;;;;;6.97;2.58;;;;;;;;;;10231316;28;19990;-64
2021/04/20 17:15:16;;;;;;;4.18;2.28;;;;;;;;;;10232609;28;20045;-64
2021/04/20 17:20:22;;;;;;;3.13;1.20;;;;;;;;;;10251531;28;20034;-63
2021/04/20 17:25:22;;;;;;;3.80;2.00;;;;;;;;;;10250451;28;20269;-64
2021/04/20 17:30:34;;;;;;;5.80;1.80;;;;;;;;;;10245097;28;20035;-63
2021/04/20 17:35:35;;;;;;;2.70;1.88;;;;;;;;;;10237723;28;20026;-64
2021/04/20 17:40:38;;;;;;;5.38;2.40;;;;;;;;;;10300020;28;20037;-63
2021/04/20 17:45:54;;;;;;;2.65;1.15;;;;;;;;;;10278879;28;20453;-62
2021/04/20 17:50:57;;;;;;;2.15;1.90;;;;;;;;;;10239982;28;20034;-64
2021/04/20 17:56:14;;;;;;;6.13;1.63;;;;;;;;;;10241135;28;20452;-62
2021/04/20 18:01:30;;;;;;;5.43;1.65;;;;;;;;;;10249703;28;20054;-64
2021/04/20 18:06:34;;;;;;;3.75;2.22;;;;;;;;;;10272833;28;20091;-64
2021/04/20 18:11:34;;;;;;;7.55;2.55;;;;;;;;;;10274353;28;20582;-64
2021/04/20 18:16:50;;;;;;;3.80;2.40;;;;;;;;;;10276466;28;20384;-64
2021/04/20 18:21:47;;;;;;;3.53;1.90;;;;;;;;;;10277667;28;20043;-64
2021/04/20 18:26:54;;;;;;;5.23;1.93;;;;;;;;;;10266505;28;20030;-64
2021/04/20 18:32:03;;;;;;;3.35;1.85;;;;;;;;;;10246465;28;20089;-64
2021/04/20 18:37:00;;;;;;;5.05;1.80;;;;;;;;;;10229809;28;20037;-63
2021/04/20 18:42:04;;;;;;;6.03;2.53;;;;;;;;;;10242351;28;20041;-64
2021/04/20 18:47:23;;;;;;;5.80;2.38;;;;;;;;;;10234914;28;20043;-63
2021/04/20 18:52:39;;;;;;;2.72;2.05;;;;;;;;;;10243220;28;20038;-64
2021/04/20 18:57:37;;;;;;;7.20;3.17;;;;;;;;;;10233491;28;20072;-63
2021/04/20 19:02:37;;;;;;;15.63;5.40;;;;;;;;;;10248762;28;20114;-65
2021/04/20 19:07:48;;;;;;;14.52;5.00;;;;;;;;;;10249468;28;20038;-65
2021/04/20 19:12:58;;;;;;;9.50;3.90;;;;;;;;;;10239151;28;20412;-64
2021/04/20 19:18:14;;;;;;;4.65;3.00;;;;;;;;;;10236266;28;20636;-66
2021/04/20 19:23:15;;;;;;;7.35;3.03;;;;;;;;;;10255872;28;20092;-65
2021/04/20 19:28:27;;;;;;;6.40;3.05;;;;;;;;;;10260099;28;20034;-65
2021/04/20 19:33:45;;;;;;;6.40;3.50;;;;;;;;;;10247579;28;20112;-63
2021/04/20 19:39:01;;;;;;;4.80;2.10;;;;;;;;;;10259306;28;20030;-63
2021/04/20 19:44:06;;;;;;;6.60;2.70;;;;;;;;;;10286188;28;20037;-63
2021/04/20 19:49:09;;;;;;;2.10;1.38;;;;;;;;;;10287792;28;20142;-61
2021/04/20 19:54:08;;;;;;;1.48;1.38;;;;;;;;;;10350338;22;20041;-62
2021/04/20 19:59:09;;;;;;;6.55;3.40;;;;;;;;;;10238978;28;20033;-65
2021/04/20 20:04:13;;;;;;;4.47;2.45;;;;;;;;;;10237970;28;20611;-62
2021/04/20 20:09:10;;;;;;;6.95;2.85;;;;;;;;;;10278039;22;20120;-67
2021/04/20 20:14:13;;;;;;;2.97;2.50;;;;;;;;;;10275170;28;20612;-66
2021/04/20 20:19:12;;;;;;;3.97;2.75;;;;;;;;;;10255141;28;20057;-67
2021/04/20 20:24:11;;;;;;;5.53;2.97;;;;;;;;;;10253584;28;20038;-65
2021/04/20 20:29:09;;;;;;;5.28;3.17;;;;;;;;;;10256176;28;21277;-66
2021/04/20 20:34:07;;;;;;;8.77;3.45;;;;;;;;;;10245709;28;20123;-66
2021/04/20 20:39:05;;;;;;;5.67;2.77;;;;;;;;;;10257327;28;20038;-66
2021/04/20 20:44:09;;;;;;;5.28;3.13;;;;;;;;;;10252325;28;20518;-66
2021/04/20 20:49:08;;;;;;;4.85;3.17;;;;;;;;;;10256042;28;20522;-67
2021/04/20 20:54:07;;;;;;;7.28;3.83;;;;;;;;;;10234206;28;20590;-64
2021/04/20 20:59:25;;;;;;;9.57;3.70;;;;;;;;;;10248897;28;20117;-66
2021/04/20 21:04:31;;;;;;;7.72;3.92;;;;;;;;;;10250202;28;20041;-67
2021/04/20 21:09:30;;;;;;;8.88;3.75;;;;;;;;;;10252125;28;20506;-66
2021/04/20 21:14:32;;;;;;;8.00;3.80;;;;;;;;;;10241343;28;20037;-66
2021/04/20 21:19:31;;;;;;;6.90;3.88;;;;;;;;;;10267679;28;20078;-66
2021/04/20 21:24:49;;;;;;;5.18;3.70;;;;;;;;;;10248036;28;20078;-66
2021/04/20 21:30:04;;;;;;;8.82;3.83;;;;;;;;;;10245299;28;20044;-67
2021/04/20 21:35:03;;;;;;;18.23;7.88;;;;;;;;;;10251658;28;20152;-66
2021/04/20 21:40:03;;;;;;;18.60;8.13;;;;;;;;;;10252334;28;20069;-65
2021/04/20 21:45:02;;;;;;;17.35;7.70;;;;;;;;;;10244430;28;20056;-66
2021/04/20 21:49:59;;;;;;;;;;;;;;;;;;10234678;28;20041;-65
2021/04/20 21:55:02;;;;;;;10.75;5.30;;;;;;;;;;10241577;28;20367;-66
2021/04/20 22:00:04;;;;;;;6.72;4.00;;;;;;;;;;10242874;28;20022;-66
2021/04/20 22:05:10;;;;;;;4.93;3.67;;;;;;;;;;10242651;28;20050;-66
2021/04/20 22:10:07;;;;;;;;;;;;;;;;;;10241126;28;20119;-66
2021/04/20 22:15:06;;;;;;;7.13;3.45;;;;;;;;;;10251314;28;19969;-65
2021/04/20 22:20:05;;;;;;;7.90;3.58;;;;;;;;;;10262262;28;20100;-66
2021/04/20 22:25:07;;;;;;;5.78;3.42;;;;;;;;;;10251667;28;20446;-65
2021/04/20 22:30:05;;;;;;;9.05;3.63;;;;;;;;;;10256698;28;20041;-66
2021/04/20 22:35:03;;;;;;;8.32;3.60;;;;;;;;;;10251923;28;20034;-65
2021/04/20 22:40:01;;;;;;;4.07;3.47;;;;;;;;;;10242927;28;20037;-65
2021/04/20 22:44:59;;;;;;;8.52;4.18;;;;;;;;;;10270503;28;20038;-67
2021/04/20 22:49:59;;;;;;;6.50;3.80;;;;;;;;;;10250927;28;20026;-66
2021/04/20 22:55:03;;;;;;;7.13;3.65;;;;;;;;;;10254762;28;20104;-65
2021/04/20 23:00:09;;;;;;;7.80;3.88;;;;;;;;;;10248829;28;20100;-65
2021/04/20 23:05:10;;;;;;;10.73;3.90;;;;;;;;;;10255586;28;20042;-65
2021/04/20 23:10:08;;;;;;;7.03;4.03;;;;;;;;;;10228700;28;20038;-65
2021/04/20 23:15:06;;;;;;;6.07;3.10;;;;;;;;;;10209064;28;20038;-65
2021/04/20 23:20:06;;;;;;;6.20;3.55;;;;;;;;;;10242698;28;20465;-63
2021/04/20 23:25:04;;;;;;;5.97;3.90;;;;;;;;;;10254415;28;20038;-64
2021/04/20 23:30:05;;;;;;;5.43;3.53;;;;;;;;;;10241927;28;20999;-65
2021/04/20 23:35:07;;;;;;;7.22;3.72;;;;;;;;;;10251050;28;20034;-65
2021/04/20 23:40:05;;;;;;;5.22;3.65;;;;;;;;;;10251884;28;20020;-65
2021/04/20 23:45:03;;;;;;;5.03;3.30;;;;;;;;;;10247929;28;20028;-66
2021/04/20 23:50:04;;;;;;;7.57;4.00;;;;;;;;;;10250451;28;20038;-64
2021/04/20 23:55:02;;;;;;;6.75;3.90;;;;;;;;;;10251076;28;20041;-65
2021/04/20 23:59:59;;;;;;;;;;;;;;;;;;10244623;28;20066;-64
